Time;durP1;ratioP1;P1;durP2;ratioP2;P2;SDS_P1;SDS_P2;PMS_P1;PMS_P2;Temp;Humidity;BMP_temperature;BMP_pressure;BME280_temperature;BME280_humidity;BME280_pressure;Samples;Min_cycle;Max_cycle;Signal;HPM_P1;HPM_P2
2022/06/19 00:02:15;;;;;;;12.02;2.58;;;15.50;99.90;;;;;;4965034;28;20050;-72
2022/06/19 00:04:43;;;;;;;5.68;2.47;;;15.40;99.90;;;;;;4963989;28;20051;-72
2022/06/19 00:07:11;;;;;;;6.22;2.45;;;15.40;99.90;;;;;;4965180;28;20043;-72
2022/06/19 00:09:37;;;;;;;4.95;2.38;;;15.50;99.90;;;;;;4983409;28;20129;-71
2022/06/19 00:12:03;;;;;;;5.30;2.22;;;15.40;99.90;;;;;;4997138;28;20169;-72
2022/06/19 00:14:29;;;;;;;6.85;1.95;;;15.40;99.90;;;;;;5010618;28;20046;-70
2022/06/19 00:16:54;;;;;;;4.45;1.80;;;15.40;99.90;;;;;;5016814;28;20057;-71
2022/06/19 00:19:20;;;;;;;10.93;2.30;;;15.40;99.90;;;;;;5003001;28;20046;-72
2022/06/19 00:21:47;;;;;;;5.07;1.98;;;15.30;99.90;;;;;;5003497;28;20051;-71
2022/06/19 00:24:13;;;;;;;7.30;2.47;;;15.30;99.90;;;;;;5002470;28;20046;-71
2022/06/19 00:26:44;;;;;;;3.75;1.55;;;15.30;99.90;;;;;;5003945;28;20350;-71
2022/06/19 00:29:10;;;;;;;5.07;1.77;;;15.40;99.90;;;;;;4969512;28;20133;-72
2022/06/19 00:31:36;;;;;;;5.15;1.90;;;15.40;99.90;;;;;;4978179;28;20128;-72
2022/06/19 00:34:02;;;;;;;6.43;1.92;;;15.40;99.90;;;;;;4978198;28;20065;-71
2022/06/19 00:36:28;;;;;;;4.10;1.80;;;15.40;99.90;;;;;;4982040;28;20089;-71
2022/06/19 00:38:55;;;;;;;5.32;1.73;;;15.40;99.90;;;;;;4994258;28;20081;-71
2022/06/19 00:41:22;;;;;;;6.13;1.70;;;15.40;99.90;;;;;;4971886;28;20047;-71
2022/06/19 00:44:03;;;;;;;4.80;2.55;;;15.40;99.90;;;;;;4988741;28;20101;-71
2022/06/19 00:46:48;;;;;;;3.65;1.80;;;15.40;99.90;;;;;;5000568;28;20077;-71
2022/06/19 00:49:23;;;;;;;5.13;1.92;;;15.30;99.90;;;;;;4993869;28;20101;-71
2022/06/19 00:52:00;;;;;;;5.18;1.63;;;15.30;99.90;;;;;;5006898;28;20054;-71
2022/06/19 00:54:28;;;;;;;6.40;2.47;;;15.30;99.90;;;;;;4995351;28;20513;-72
2022/06/19 00:56:53;;;;;;;5.35;2.00;;;15.30;99.90;;;;;;4982067;28;20099;-72
2022/06/19 00:59:19;;;;;;;12.77;2.65;;;15.30;99.90;;;;;;4981045;28;20942;-72
2022/06/19 01:01:45;;;;;;;6.18;2.13;;;15.30;99.90;;;;;;4983927;28;20053;-72
2022/06/19 01:04:39;;;;;;;7.72;2.33;;;15.30;99.90;;;;;;4982340;28;20820;-72
2022/06/19 01:07:05;;;;;;;;;;;15.20;99.90;;;;;;4984557;28;20642;-72
2022/06/19 01:09:31;;;;;;;7.25;2.22;;;15.20;99.90;;;;;;4979579;28;19925;-72
2022/06/19 01:12:01;;;;;;;6.00;1.98;;;15.10;99.90;;;;;;4944704;28;20491;-72
2022/06/19 01:14:28;;;;;;;6.63;2.60;;;15.10;99.90;;;;;;4982038;28;20518;-72
2022/06/19 01:16:53;;;;;;;4.25;1.90;;;15.10;99.90;;;;;;4974558;28;20054;-72
2022/06/19 01:19:26;;;;;;;7.18;2.13;;;15.10;99.90;;;;;;4982170;28;20058;-72
2022/06/19 01:22:13;;;;;;;3.85;1.70;;;15.10;99.90;;;;;;4982460;28;20105;-72
2022/06/19 01:24:57;;;;;;;9.75;3.83;;;15.10;99.90;;;;;;4988680;28;20596;-72
2022/06/19 01:30:11;;;;;;;7.63;2.05;;;15.10;99.90;;;;;;4984500;28;20050;-72
2022/06/19 01:32:37;;;;;;;8.65;2.33;;;15.10;99.90;;;;;;4990718;28;20054;-72
2022/06/19 01:35:05;;;;;;;4.93;2.80;;;15.10;99.90;;;;;;4976179;28;20160;-72
2022/06/19 01:37:31;;;;;;;7.55;2.25;;;15.20;99.90;;;;;;4975312;28;20048;-72
2022/06/19 01:40:24;;;;;;;4.60;2.15;;;15.20;99.90;;;;;;4973083;28;20057;-72
2022/06/19 01:42:50;;;;;;;7.72;2.50;;;15.20;99.90;;;;;;4943485;28;20521;-72
2022/06/19 01:45:17;;;;;;;4.97;2.17;;;15.10;99.90;;;;;;4969262;28;20062;-72
2022/06/19 01:47:43;;;;;;;7.22;2.25;;;15.10;99.90;;;;;;4979096;28;20050;-72
2022/06/19 01:50:13;;;;;;;8.70;2.70;;;15.10;99.90;;;;;;4983011;28;20047;-72
2022/06/19 01:52:39;;;;;;;6.13;2.13;;;15.10;99.90;;;;;;4976184;28;20163;-71
2022/06/19 01:55:13;;;;;;;7.32;2.30;;;15.10;99.90;;;;;;4972707;28;20042;-72
2022/06/19 01:57:42;;;;;;;7.75;2.35;;;15.00;99.90;;;;;;4969759;28;20082;-72
2022/06/19 02:00:16;;;;;;;5.65;2.47;;;15.10;99.90;;;;;;4978692;28;20051;-72
2022/06/19 02:02:45;;;;;;;7.60;2.97;;;15.10;99.90;;;;;;4985034;28;20046;-72
2022/06/19 02:05:11;;;;;;;7.68;2.75;;;15.10;99.90;;;;;;4992531;28;20097;-72
2022/06/19 02:07:37;;;;;;;10.38;3.00;;;15.00;99.90;;;;;;4971128;28;20050;-72
2022/06/19 02:10:03;;;;;;;10.73;2.90;;;15.00;99.90;;;;;;4969368;28;20993;-72
2022/06/19 02:12:32;;;;;;;8.90;3.33;;;15.10;99.90;;;;;;4971195;28;20058;-72
2022/06/19 02:14:59;;;;;;;13.20;3.53;;;15.10;99.90;;;;;;4979903;28;20054;-73
2022/06/19 02:17:33;;;;;;;7.43;3.15;;;15.00;99.90;;;;;;4979309;28;20058;-73
2022/06/19 02:19:59;;;;;;;8.93;2.65;;;15.00;99.90;;;;;;4978831;28;20050;-72
2022/06/19 02:22:25;;;;;;;5.45;3.17;;;15.00;99.90;;;;;;4980563;28;20090;-72
2022/06/19 02:24:50;;;;;;;7.55;2.50;;;14.90;99.90;;;;;;4980681;28;20050;-72
2022/06/19 02:27:16;;;;;;;8.00;3.05;;;15.00;99.90;;;;;;4979490;28;20093;-72
2022/06/19 02:29:43;;;;;;;13.13;3.15;;;14.90;99.90;;;;;;4993426;28;20042;-72
2022/06/19 02:32:39;;;;;;;9.55;3.05;;;14.90;99.90;;;;;;4991973;28;20054;-72
2022/06/19 02:35:10;;;;;;;9.02;3.03;;;14.90;99.90;;;;;;4972602;28;20146;-72
2022/06/19 02:37:42;;;;;;;9.07;2.90;;;14.90;99.90;;;;;;4954382;28;20066;-72
2022/06/19 02:40:48;;;;;;;9.52;2.80;;;14.90;99.90;;;;;;4990235;28;20054;-72
2022/06/19 02:43:21;;;;;;;11.43;3.20;;;14.90;99.90;;;;;;4954716;28;20407;-73
2022/06/19 02:45:47;;;;;;;14.05;2.70;;;14.90;99.90;;;;;;4968331;28;20569;-72
2022/06/19 02:48:33;;;;;;;10.43;3.00;;;14.90;99.90;;;;;;4967651;28;20053;-72
2022/06/19 02:51:03;;;;;;;10.15;3.33;;;14.90;99.90;;;;;;4979678;28;20062;-72
2022/06/19 02:53:28;;;;;;;14.02;3.13;;;14.90;99.90;;;;;;4962183;28;20439;-72
2022/06/19 02:55:55;;;;;;;13.57;3.10;;;14.90;99.90;;;;;;4967401;28;20479;-72
2022/06/19 02:58:21;;;;;;;14.02;4.35;;;14.90;99.90;;;;;;4951384;28;20046;-71
2022/06/19 03:00:48;;;;;;;9.82;3.65;;;14.80;99.90;;;;;;4967938;28;20117;-73
2022/06/19 03:03:34;;;;;;;17.08;5.38;;;14.60;99.90;;;;;;4977056;28;20043;-71
2022/06/19 03:06:00;;;;;;;11.27;5.00;;;14.50;99.90;;;;;;4968454;28;20378;-71
2022/06/19 03:08:25;;;;;;;14.05;3.40;;;14.30;99.90;;;;;;4990660;28;20988;-72
2022/06/19 03:10:51;;;;;;;13.02;3.50;;;14.20;99.90;;;;;;4977008;28;20804;-74
2022/06/19 03:13:18;;;;;;;7.80;3.30;;;14.10;99.90;;;;;;4960395;28;20050;-72
2022/06/19 03:15:44;;;;;;;6.50;3.80;;;13.90;99.90;;;;;;4978859;28;20058;-73
2022/06/19 03:18:10;;;;;;;10.10;2.90;;;13.80;99.90;;;;;;4979354;28;20053;-72
2022/06/19 03:20:36;;;;;;;10.60;3.30;;;13.70;99.90;;;;;;4993788;28;20037;-74
2022/06/19 03:23:01;;;;;;;13.30;3.22;;;13.80;99.90;;;;;;4979492;28;20050;-73
2022/06/19 03:25:27;;;;;;;8.10;3.13;;;13.70;99.90;;;;;;4988129;28;20045;-74
2022/06/19 03:27:53;;;;;;;10.65;3.10;;;13.70;99.90;;;;;;4987792;28;20494;-75
2022/06/19 03:30:20;;;;;;;9.57;2.75;;;13.70;99.90;;;;;;4986874;28;20042;-74
2022/06/19 03:32:46;;;;;;;11.05;3.85;;;13.60;99.90;;;;;;4982213;28;20130;-72
2022/06/19 03:35:14;;;;;;;11.10;3.53;;;13.70;99.90;;;;;;4981451;28;20120;-73
2022/06/19 03:37:39;;;;;;;29.33;4.78;;;13.70;99.90;;;;;;4981845;28;20046;-73
2022/06/19 03:40:06;;;;;;;8.32;2.72;;;13.70;99.90;;;;;;4984818;28;20789;-72
2022/06/19 03:42:32;;;;;;;8.88;3.47;;;13.70;99.90;;;;;;4984173;28;20092;-75
2022/06/19 03:44:58;;;;;;;8.43;3.03;;;13.70;99.90;;;;;;4972782;28;20043;-73
2022/06/19 03:47:26;;;;;;;4.63;2.55;;;13.70;99.90;;;;;;4983848;28;20065;-74
2022/06/19 03:49:52;;;;;;;16.25;4.25;;;13.70;99.90;;;;;;4975360;28;20053;-74
2022/06/19 03:52:17;;;;;;;12.57;2.80;;;13.70;99.90;;;;;;4965726;28;20047;-74
2022/06/19 03:54:43;;;;;;;11.38;3.17;;;13.80;99.90;;;;;;4973724;28;20070;-74
2022/06/19 03:57:13;;;;;;;7.38;2.88;;;13.70;99.90;;;;;;4978556;28;20058;-73
2022/06/19 03:59:39;;;;;;;6.22;3.22;;;13.70;99.90;;;;;;4977012;28;20077;-74
2022/06/19 04:02:07;;;;;;;12.65;3.03;;;13.70;99.90;;;;;;4971749;28;20046;-74
2022/06/19 04:04:33;;;;;;;7.63;2.55;;;13.70;99.90;;;;;;4984677;28;20561;-74
2022/06/19 04:06:59;;;;;;;16.95;3.03;;;13.70;99.90;;;;;;4960646;28;20053;-74
2022/06/19 04:09:24;;;;;;;10.32;3.10;;;13.60;99.90;;;;;;4987666;28;20046;-74
2022/06/19 04:11:50;;;;;;;14.23;3.35;;;13.60;99.90;;;;;;4982111;28;20482;-73
2022/06/19 04:14:16;;;;;;;11.32;3.13;;;13.60;99.90;;;;;;4978521;28;20124;-73
2022/06/19 04:16:43;;;;;;;13.90;4.78;;;13.50;99.90;;;;;;4976429;28;20050;-74
2022/06/19 04:19:09;;;;;;;7.95;3.13;;;13.40;99.90;;;;;;4975748;28;20070;-73
2022/06/19 04:21:41;;;;;;;11.75;3.83;;;13.30;99.90;;;;;;4986981;28;20665;-75
2022/06/19 04:24:09;;;;;;;6.95;3.03;;;13.30;99.90;;;;;;4990614;28;20053;-74
2022/06/19 04:26:37;;;;;;;10.77;2.88;;;13.20;99.90;;;;;;4988390;28;20042;-74
2022/06/19 04:29:04;;;;;;;12.88;4.18;;;13.20;99.90;;;;;;4981452;28;20088;-74
2022/06/19 04:31:30;;;;;;;7.80;2.85;;;13.10;99.90;;;;;;4990189;28;20038;-74
2022/06/19 04:33:56;;;;;;;11.25;3.53;;;13.10;99.90;;;;;;4972447;28;20045;-73
2022/06/19 04:36:24;;;;;;;8.90;3.30;;;13.10;99.90;;;;;;4980774;28;20507;-74
2022/06/19 04:38:54;;;;;;;11.70;4.18;;;13.10;99.90;;;;;;4981450;28;20372;-74
2022/06/19 04:41:32;;;;;;;6.45;2.90;;;13.10;99.90;;;;;;4991333;28;20103;-73
2022/06/19 04:43:59;;;;;;;9.25;2.88;;;13.10;99.90;;;;;;4991222;28;20054;-75
2022/06/19 04:46:26;;;;;;;12.50;3.67;;;13.10;99.90;;;;;;4990893;28;20130;-74
2022/06/19 04:48:52;;;;;;;12.45;3.55;;;13.10;99.90;;;;;;4982627;28;20124;-75
2022/06/19 04:51:18;;;;;;;8.07;2.45;;;13.10;99.90;;;;;;4987896;28;20046;-75
2022/06/19 04:53:45;;;;;;;9.45;3.30;;;13.10;99.90;;;;;;4989399;28;20057;-74
2022/06/19 04:56:12;;;;;;;7.18;3.60;;;13.10;99.90;;;;;;4987435;28;20076;-73
2022/06/19 04:58:38;;;;;;;6.18;4.57;;;13.20;99.90;;;;;;4993325;28;20101;-74
2022/06/19 05:01:14;;;;;;;8.90;3.22;;;13.20;99.90;;;;;;4988035;28;20775;-74
2022/06/19 05:03:40;;;;;;;7.45;3.28;;;13.20;99.90;;;;;;4994865;28;20389;-75
2022/06/19 05:06:06;;;;;;;12.85;5.22;;;13.30;99.90;;;;;;4983448;28;20821;-74
2022/06/19 05:08:32;;;;;;;8.95;2.33;;;13.40;99.90;;;;;;4990989;28;20544;-74
2022/06/19 05:10:59;;;;;;;5.88;2.08;;;13.40;99.90;;;;;;4988457;28;20058;-74
2022/06/19 05:13:25;;;;;;;4.68;1.75;;;13.50;99.90;;;;;;4991454;28;20263;-75
2022/06/19 05:16:14;;;;;;;7.10;1.58;;;13.30;99.90;;;;;;4989437;28;20060;-74
2022/06/19 05:18:41;;;;;;;2.03;1.83;;;13.10;99.90;;;;;;4994932;28;21265;-74
2022/06/19 05:21:08;;;;;;;6.47;2.45;;;12.90;99.90;;;;;;4990745;28;20130;-73
2022/06/19 05:23:36;;;;;;;4.68;1.98;;;12.90;99.90;;;;;;4991466;28;20757;-75
2022/06/19 05:26:07;;;;;;;3.90;1.70;;;12.80;99.90;;;;;;4989673;28;21030;-73
2022/06/19 05:28:34;;;;;;;4.32;1.75;;;12.90;99.90;;;;;;4952825;28;20049;-75
2022/06/19 05:31:00;;;;;;;4.85;2.53;;;12.80;99.90;;;;;;4983812;28;20588;-76
2022/06/19 05:33:28;;;;;;;9.50;1.85;;;12.90;99.90;;;;;;4988455;28;20197;-74
2022/06/19 05:35:54;;;;;;;4.90;2.25;;;12.80;99.90;;;;;;4973576;28;20053;-76
2022/06/19 05:38:20;;;;;;;7.90;2.25;;;12.80;99.90;;;;;;4988913;28;20093;-74
2022/06/19 05:40:48;;;;;;;6.93;1.88;;;12.80;99.90;;;;;;4990180;28;20033;-74
2022/06/19 05:43:14;;;;;;;2.83;1.80;;;12.80;99.90;;;;;;4993716;28;20046;-74
2022/06/19 05:45:40;;;;;;;6.65;2.17;;;12.90;99.90;;;;;;4986610;28;20055;-75
2022/06/19 05:48:05;;;;;;;9.88;2.42;;;13.00;99.90;;;;;;4987726;28;20038;-74
2022/06/19 05:50:31;;;;;;;8.95;2.55;;;12.90;99.90;;;;;;4974562;28;20049;-74
2022/06/19 05:52:57;;;;;;;5.70;2.47;;;13.00;99.90;;;;;;4989742;28;20136;-74
2022/06/19 05:55:23;;;;;;;4.15;2.70;;;13.00;99.90;;;;;;4949376;28;20050;-74
2022/06/19 05:57:48;;;;;;;6.43;3.15;;;13.00;99.90;;;;;;4989194;28;20517;-75
2022/06/19 06:00:14;;;;;;;5.25;2.50;;;13.10;99.90;;;;;;4991458;28;20601;-75
2022/06/19 06:02:41;;;;;;;8.57;2.58;;;13.10;99.90;;;;;;4982315;28;20042;-74
2022/06/19 06:05:07;;;;;;;5.25;2.35;;;13.10;99.90;;;;;;4973053;28;20043;-75
2022/06/19 06:07:33;;;;;;;7.78;2.53;;;13.30;99.90;;;;;;4974366;28;20345;-75
2022/06/19 06:09:59;;;;;;;7.65;2.55;;;13.30;99.90;;;;;;4972187;28;20046;-75
2022/06/19 06:12:24;;;;;;;7.97;2.33;;;13.30;99.90;;;;;;4970332;28;20581;-75
2022/06/19 06:14:50;;;;;;;10.52;2.88;;;13.30;99.90;;;;;;4994994;28;20673;-76
2022/06/19 06:17:16;;;;;;;10.10;3.65;;;13.30;99.90;;;;;;4984640;28;20354;-77
2022/06/19 06:19:41;;;;;;;7.38;2.50;;;13.30;99.90;;;;;;4979379;28;20129;-75
2022/06/19 06:22:07;;;;;;;6.70;2.50;;;13.30;99.90;;;;;;4980542;28;20443;-73
2022/06/19 06:24:33;;;;;;;9.38;3.28;;;13.40;99.90;;;;;;4978627;28;20042;-75
2022/06/19 06:26:59;;;;;;;7.75;2.50;;;13.40;99.90;;;;;;4976557;28;20054;-75
2022/06/19 06:29:25;;;;;;;11.40;2.75;;;13.40;99.90;;;;;;4979551;28;20498;-76
2022/06/19 06:31:51;;;;;;;8.63;2.70;;;13.30;99.90;;;;;;4980184;28;20100;-74
2022/06/19 06:34:17;;;;;;;16.67;3.47;;;13.30;99.90;;;;;;4978458;28;20059;-77
2022/06/19 06:36:43;;;;;;;9.43;2.55;;;13.30;99.90;;;;;;4977173;28;20418;-79
2022/06/19 06:39:09;;;;;;;9.82;3.50;;;13.30;99.90;;;;;;4979060;28;20054;-80
2022/06/19 06:41:34;;;;;;;12.18;3.13;;;13.40;99.90;;;;;;4989599;28;20486;-76
2022/06/19 06:44:00;;;;;;;10.00;2.58;;;13.50;99.90;;;;;;4982273;28;20049;-73
2022/06/19 06:46:27;;;;;;;5.78;2.63;;;13.40;99.90;;;;;;4977311;28;20053;-73
2022/06/19 06:48:56;;;;;;;10.75;3.53;;;13.50;99.90;;;;;;4987789;28;20569;-74
2022/06/19 06:51:24;;;;;;;8.07;3.50;;;13.50;99.90;;;;;;4980328;28;20921;-75
2022/06/19 06:53:51;;;;;;;7.25;2.50;;;13.50;99.90;;;;;;4977642;28;20043;-76
2022/06/19 06:56:18;;;;;;;12.18;2.75;;;13.50;99.90;;;;;;4977039;28;20047;-77
2022/06/19 06:58:43;;;;;;;5.97;2.20;;;13.50;99.90;;;;;;4983173;28;20046;-75
2022/06/19 07:01:16;;;;;;;6.40;2.10;;;13.70;99.90;;;;;;4980997;28;20042;-77
2022/06/19 07:03:43;;;;;;;11.23;2.55;;;13.80;99.90;;;;;;4978792;28;20048;-77
2022/06/19 07:06:10;;;;;;;6.50;3.42;;;13.80;99.90;;;;;;4975119;28;20933;-74
2022/06/19 07:08:37;;;;;;;10.82;2.42;;;13.90;99.90;;;;;;4975419;28;20135;-74
2022/06/19 07:11:03;;;;;;;4.82;2.55;;;14.10;99.90;;;;;;4950931;28;20158;-75
2022/06/19 07:13:28;;;;;;;9.38;2.22;;;14.10;99.90;;;;;;4975781;28;20046;-74
2022/06/19 07:15:54;;;;;;;8.43;2.50;;;14.00;99.90;;;;;;4949509;28;20057;-75
2022/06/19 07:18:20;;;;;;;8.00;3.08;;;14.10;99.90;;;;;;4957176;28;20062;-74
2022/06/19 07:20:46;;;;;;;6.18;2.95;;;14.10;99.90;;;;;;4982115;28;20047;-76
2022/06/19 07:23:11;;;;;;;7.00;2.35;;;14.00;99.90;;;;;;4978562;28;20775;-75
2022/06/19 07:25:37;;;;;;;8.55;3.20;;;14.00;99.90;;;;;;4981551;28;20065;-73
2022/06/19 07:28:04;;;;;;;6.60;2.17;;;13.90;99.90;;;;;;4973598;28;20051;-74
2022/06/19 07:30:29;;;;;;;15.02;3.22;;;14.00;99.90;;;;;;4982475;28;20033;-76
2022/06/19 07:32:56;;;;;;;6.20;2.33;;;14.00;99.90;;;;;;4979329;28;20084;-75
2022/06/19 07:35:23;;;;;;;5.50;2.30;;;14.10;99.90;;;;;;4984943;28;20045;-73
2022/06/19 07:37:49;;;;;;;12.80;2.97;;;14.00;99.90;;;;;;4981473;28;20070;-74
2022/06/19 07:40:17;;;;;;;7.22;2.75;;;14.10;99.90;;;;;;4979716;28;20152;-75
2022/06/19 07:42:43;;;;;;;9.10;2.80;;;14.10;99.90;;;;;;4971142;28;20085;-72
2022/06/19 07:45:10;;;;;;;6.43;3.30;;;14.10;99.90;;;;;;4973412;28;20050;-76
2022/06/19 07:50:34;;;;;;;5.97;2.28;;;14.20;99.90;;;;;;4918928;28;20888;-74
2022/06/19 07:53:00;;;;;;;5.65;2.53;;;14.20;99.90;;;;;;4982019;28;20046;-74
2022/06/19 07:55:30;;;;;;;14.07;2.95;;;14.20;99.90;;;;;;4976800;28;20820;-74
2022/06/19 07:57:55;;;;;;;6.30;2.33;;;14.30;99.90;;;;;;4980066;28;20077;-73
2022/06/19 08:00:27;;;;;;;5.88;3.28;;;14.30;99.90;;;;;;4978500;28;20097;-75
2022/06/19 08:02:54;;;;;;;9.43;2.67;;;14.40;99.90;;;;;;4975477;28;20130;-75
2022/06/19 08:05:23;;;;;;;4.25;1.95;;;14.40;99.90;;;;;;4627647;28;9999901;-75
2022/06/19 08:07:50;;;;;;;4.60;2.97;;;14.50;99.90;;;;;;4959135;28;20054;-75
2022/06/19 08:10:32;;;;;;;6.80;2.95;;;14.50;99.90;;;;;;4973341;28;20050;-75
2022/06/19 08:12:58;;;;;;;6.85;2.30;;;14.60;99.90;;;;;;4976082;28;20279;-75
2022/06/19 08:15:24;;;;;;;6.78;2.78;;;14.60;99.90;;;;;;4988525;28;20473;-75
2022/06/19 08:17:50;;;;;;;8.35;2.55;;;14.70;99.90;;;;;;4974613;28;20121;-76
2022/06/19 08:20:17;;;;;;;10.50;2.50;;;14.70;99.90;;;;;;4975779;28;20389;-76
2022/06/19 08:22:44;;;;;;;4.63;2.22;;;14.70;99.90;;;;;;4963975;28;20545;-76
2022/06/19 08:25:11;;;;;;;7.47;3.03;;;14.70;99.90;;;;;;4981685;28;20140;-75
2022/06/19 08:27:42;;;;;;;8.43;2.25;;;14.70;99.90;;;;;;4976276;28;20134;-75
2022/06/19 08:30:12;;;;;;;12.93;2.60;;;14.60;99.90;;;;;;4972770;28;20045;-75
2022/06/19 08:32:38;;;;;;;10.32;2.75;;;14.60;99.90;;;;;;4970020;28;20058;-74
2022/06/19 08:35:04;;;;;;;42.22;19.60;;;14.70;99.90;;;;;;4974843;28;20089;-80
2022/06/19 08:37:32;;;;;;;25.63;15.73;;;14.60;99.90;;;;;;4970004;28;20058;-75
2022/06/19 08:39:58;;;;;;;14.13;6.47;;;14.70;99.90;;;;;;4971342;28;20051;-76
2022/06/19 08:42:40;;;;;;;8.48;2.28;;;14.70;99.90;;;;;;4969875;28;20146;-77
2022/06/19 08:45:27;;;;;;;5.90;3.00;;;14.80;99.90;;;;;;4970802;28;20073;-74
2022/06/19 08:48:25;;;;;;;8.23;2.58;;;14.90;99.90;;;;;;4973181;28;20155;-77
2022/06/19 08:50:59;;;;;;;13.13;2.22;;;15.00;99.90;;;;;;4977313;28;20049;-74
2022/06/19 08:53:40;;;;;;;5.13;2.20;;;15.10;99.90;;;;;;4975556;28;20895;-74
2022/06/19 08:56:35;;;;;;;8.13;2.45;;;15.30;99.90;;;;;;4974255;28;20157;-74
2022/06/19 08:59:14;;;;;;;10.75;2.63;;;15.40;99.90;;;;;;4972136;28;20169;-74
2022/06/19 09:02:07;;;;;;;6.00;2.25;;;15.60;99.90;;;;;;4974636;28;20038;-73
2022/06/19 09:07:43;;;;;;;4.70;2.33;;;14.80;99.90;;;;;;4972550;28;20196;-78
2022/06/19 09:10:33;;;;;;;7.32;2.40;;;15.50;99.90;;;;;;4975219;28;20081;-74
2022/06/19 09:13:09;;;;;;;4.60;2.20;;;15.50;99.90;;;;;;4978964;28;20529;-74
2022/06/19 09:15:34;;;;;;;9.15;2.65;;;15.30;99.90;;;;;;4973915;28;20066;-72
2022/06/19 09:18:04;;;;;;;9.45;2.63;;;15.20;99.90;;;;;;4979794;28;20073;-73
2022/06/19 09:20:44;;;;;;;5.00;2.58;;;15.30;99.90;;;;;;4969572;28;20384;-74
2022/06/19 09:23:47;;;;;;;6.28;2.80;;;15.30;99.90;;;;;;4976487;28;20090;-74
2022/06/19 09:26:39;;;;;;;11.07;2.72;;;15.30;99.90;;;;;;4972881;28;20471;-74
2022/06/19 09:29:34;;;;;;;10.30;2.15;;;15.40;99.90;;;;;;4972500;28;20077;-73
2022/06/19 09:32:13;;;;;;;7.05;2.13;;;15.50;99.90;;;;;;4975118;28;20054;-74
2022/06/19 09:34:56;;;;;;;5.13;1.67;;;15.40;99.90;;;;;;4977050;28;20054;-78
2022/06/19 09:37:22;;;;;;;;;;;15.40;99.90;;;;;;4983810;28;20042;-74
2022/06/19 09:40:09;;;;;;;5.88;1.77;;;15.40;99.90;;;;;;4965147;28;20282;-73
2022/06/19 09:42:37;;;;;;;8.25;2.28;;;15.00;99.90;;;;;;4975605;28;20060;-76
2022/06/19 09:45:21;;;;;;;5.45;1.30;;;15.30;99.90;;;;;;4977260;28;20376;-75
2022/06/19 09:47:56;;;;;;;2.80;1.52;;;15.40;99.90;;;;;;4959123;28;20137;-74
2022/06/19 09:50:27;;;;;;;4.45;2.13;;;15.50;99.90;;;;;;4979538;28;20902;-74
2022/06/19 09:53:14;;;;;;;8.88;1.63;;;15.50;99.90;;;;;;4971079;28;20038;-76
2022/06/19 09:55:42;;;;;;;5.57;1.67;;;15.60;99.90;;;;;;4961166;28;20043;-77
2022/06/19 09:58:15;;;;;;;5.65;1.73;;;15.70;99.90;;;;;;4972966;28;20046;-77
2022/06/19 10:00:44;;;;;;;6.13;2.70;;;15.80;99.90;;;;;;4966530;28;20046;-77
2022/06/19 10:03:16;;;;;;;4.90;1.77;;;15.80;99.90;;;;;;4974915;28;20124;-77
2022/06/19 10:05:44;;;;;;;4.57;1.95;;;15.80;99.90;;;;;;4974043;28;20056;-76
2022/06/19 10:08:36;;;;;;;3.70;1.55;;;15.90;99.90;;;;;;4975636;28;20057;-76
2022/06/19 10:11:12;;;;;;;5.68;2.35;;;15.90;99.90;;;;;;4977004;28;20491;-77
2022/06/19 10:13:53;;;;;;;8.13;2.22;;;16.00;99.90;;;;;;4973841;28;20073;-77
2022/06/19 10:16:46;;;;;;;3.03;1.77;;;15.90;99.90;;;;;;4969239;28;20106;-74
2022/06/19 10:19:16;;;;;;;4.80;1.80;;;15.90;99.90;;;;;;4973864;28;20058;-74
2022/06/19 10:24:51;;;;;;;4.05;1.77;;;15.80;99.90;;;;;;4981671;28;20506;-74
2022/06/19 10:27:36;;;;;;;5.70;2.45;;;15.70;99.90;;;;;;4989398;28;20125;-75
2022/06/19 10:30:11;;;;;;;6.88;1.58;;;15.70;99.90;;;;;;4969148;28;20047;-78
2022/06/19 10:32:42;;;;;;;4.55;1.15;;;15.70;99.90;;;;;;4975495;28;20274;-75
2022/06/19 10:35:20;;;;;;;4.72;1.50;;;15.70;99.90;;;;;;4977376;28;20046;-77
2022/06/19 10:38:23;;;;;;;7.38;1.73;;;15.70;99.90;;;;;;4981168;28;20125;-74
2022/06/19 10:41:03;;;;;;;5.67;1.30;;;15.60;99.90;;;;;;4982699;28;20042;-74
2022/06/19 10:43:31;;;;;;;2.45;1.58;;;15.70;99.90;;;;;;4963484;28;20289;-73
2022/06/19 10:46:02;;;;;;;6.10;1.33;;;15.70;99.90;;;;;;4969021;28;20131;-74
2022/06/19 10:49:01;;;;;;;4.18;1.25;;;15.70;99.90;;;;;;4966472;28;20049;-73
2022/06/19 10:51:39;;;;;;;5.82;2.17;;;15.60;99.90;;;;;;4963333;28;20065;-75
2022/06/19 10:54:20;;;;;;;8.60;1.75;;;15.70;99.90;;;;;;4970789;28;20042;-73
2022/06/19 10:57:05;;;;;;;4.43;1.67;;;15.70;99.90;;;;;;4973015;28;20079;-75
2022/06/19 10:59:31;;;;;;;2.45;1.30;;;15.60;99.90;;;;;;4972359;28;20038;-74
2022/06/19 11:05:06;;;;;;;4.75;1.10;;;15.50;99.90;;;;;;4962870;28;20105;-73
2022/06/19 11:07:32;;;;;;;1.88;1.33;;;15.80;99.90;;;;;;4964807;28;20113;-73
2022/06/19 11:10:06;;;;;;;3.75;1.25;;;15.90;99.90;;;;;;4966043;28;20073;-75
2022/06/19 11:12:37;;;;;;;4.53;1.45;;;15.90;99.90;;;;;;4982652;28;20088;-73
2022/06/19 11:15:24;;;;;;;2.63;1.20;;;15.90;99.90;;;;;;4980308;28;20046;-74
2022/06/19 11:18:08;;;;;;;3.25;1.35;;;15.90;99.90;;;;;;4982397;28;20053;-74
2022/06/19 11:20:34;;;;;;;6.30;1.83;;;15.70;99.90;;;;;;4984946;28;20105;-73
2022/06/19 11:23:05;;;;;;;4.13;1.23;;;15.70;99.90;;;;;;4987981;28;20590;-73
2022/06/19 11:25:39;;;;;;;4.00;1.20;;;15.70;99.90;;;;;;4977925;28;20760;-75
2022/06/19 11:28:15;;;;;;;2.33;0.85;;;15.60;99.90;;;;;;4965765;28;20054;-74
2022/06/19 11:31:06;;;;;;;1.90;1.15;;;15.60;99.90;;;;;;4983338;28;20057;-74
2022/06/19 11:33:35;;;;;;;3.47;1.08;;;15.60;99.90;;;;;;4984399;28;20046;-73
2022/06/19 11:36:05;;;;;;;0.68;0.68;;;15.70;99.90;;;;;;4985114;28;20077;-74
2022/06/19 11:38:41;;;;;;;4.07;1.05;;;15.80;99.90;;;;;;4983065;28;20049;-74
2022/06/19 11:41:26;;;;;;;3.72;0.82;;;15.80;99.90;;;;;;4983394;28;20162;-73
2022/06/19 11:44:19;;;;;;;2.75;0.70;;;15.80;99.90;;;;;;4963596;28;20051;-74
2022/06/19 11:46:55;;;;;;;3.93;0.87;;;15.80;99.90;;;;;;4972790;28;20050;-75
2022/06/19 11:49:27;;;;;;;1.70;0.65;;;15.80;99.90;;;;;;4985509;28;20467;-71
2022/06/19 11:51:55;;;;;;;2.50;1.13;;;15.90;99.90;;;;;;4979351;28;20042;-71
2022/06/19 11:54:34;;;;;;;0.60;0.60;;;15.70;99.90;;;;;;4971409;28;20089;-71
2022/06/19 11:57:01;;;;;;;1.00;0.70;;;15.70;99.90;;;;;;4976161;28;20081;-74
2022/06/19 11:59:39;;;;;;;0.80;0.80;;;15.70;99.90;;;;;;4977253;28;20043;-74
2022/06/19 12:02:40;;;;;;;2.67;0.82;;;15.60;99.90;;;;;;4971486;28;20054;-74
2022/06/19 12:05:23;;;;;;;2.13;0.77;;;15.70;99.90;;;;;;4961905;28;20057;-74
2022/06/19 12:07:49;;;;;;;1.55;0.70;;;15.70;99.90;;;;;;4977249;28;20189;-74
2022/06/19 12:10:15;;;;;;;1.27;0.77;;;15.70;99.90;;;;;;4978551;28;20042;-73
2022/06/19 12:12:55;;;;;;;0.93;0.65;;;15.70;99.90;;;;;;4970924;28;20603;-74
2022/06/19 12:15:24;;;;;;;2.33;1.20;;;16.10;99.90;;;;;;4979971;28;20046;-74
2022/06/19 12:17:57;;;;;;;2.25;0.95;;;15.60;99.90;;;;;;4973030;28;20081;-75
2022/06/19 12:20:32;;;;;;;4.22;1.38;;;15.60;99.90;;;;;;4982023;28;20066;-75
2022/06/19 12:23:01;;;;;;;1.75;1.08;;;15.60;99.90;;;;;;4976148;28;20182;-75
2022/06/19 12:25:33;;;;;;;6.22;1.33;;;15.50;99.90;;;;;;4978473;28;20058;-74
2022/06/19 12:28:04;;;;;;;3.70;1.10;;;15.50;99.90;;;;;;4987061;28;20294;-75
2022/06/19 12:30:35;;;;;;;2.55;1.02;;;15.40;99.90;;;;;;4980609;28;20049;-75
2022/06/19 12:33:05;;;;;;;4.28;2.50;;;15.40;99.90;;;;;;4985071;28;20261;-73
2022/06/19 12:35:38;;;;;;;5.55;1.30;;;15.60;99.90;;;;;;4980047;28;20054;-75
2022/06/19 12:38:13;;;;;;;1.38;1.27;;;15.60;99.90;;;;;;4963090;28;20042;-75
2022/06/19 12:41:03;;;;;;;3.17;1.20;;;15.70;99.90;;;;;;4968972;28;20062;-75
2022/06/19 12:43:58;;;;;;;3.60;1.90;;;15.80;99.90;;;;;;4976511;28;20051;-76
2022/06/19 12:46:27;;;;;;;1.80;1.08;;;15.90;99.90;;;;;;4983149;28;20541;-75
2022/06/19 12:49:17;;;;;;;2.60;1.50;;;16.00;99.90;;;;;;4987794;28;20050;-76
2022/06/19 12:51:51;;;;;;;2.35;1.33;;;15.90;99.90;;;;;;4961014;28;20149;-76
2022/06/19 12:54:50;;;;;;;2.05;1.30;;;16.00;99.90;;;;;;4984602;28;20130;-74
2022/06/19 12:57:32;;;;;;;2.72;1.15;;;16.10;99.90;;;;;;4967941;28;20054;-76
2022/06/19 13:00:01;;;;;;;1.85;1.00;;;16.10;99.90;;;;;;4987543;28;20248;-76
2022/06/19 13:02:56;;;;;;;1.88;1.30;;;16.00;99.90;;;;;;4979704;28;20046;-74
2022/06/19 13:06:03;;;;;;;2.83;1.30;;;15.90;99.90;;;;;;4972800;28;20062;-74
2022/06/19 13:09:03;;;;;;;5.97;1.80;;;15.80;99.90;;;;;;4981705;28;20046;-79
2022/06/19 13:11:53;;;;;;;2.20;1.27;;;16.00;99.90;;;;;;4943595;28;20170;-79
2022/06/19 13:14:39;;;;;;;1.90;1.10;;;16.10;99.90;;;;;;4979028;28;20089;-81
2022/06/19 13:17:29;;;;;;;1.95;1.10;;;16.10;99.90;;;;;;4975368;28;20049;-80
2022/06/19 13:20:10;;;;;;;6.18;1.05;;;16.10;99.90;;;;;;4983535;28;20064;-82
2022/06/19 13:22:44;;;;;;;7.20;2.38;;;16.10;99.90;;;;;;4984049;28;20088;-80
2022/06/19 13:25:18;;;;;;;4.93;2.50;;;16.20;99.90;;;;;;4937355;28;20142;-79